sensor_id;sensor_type;location;lat;lon;timestamp;P1;durP1;ratioP1;P2;durP2;ratioP2
51660;SDS011;37741;49.748;8.490;2023-09-19T00:00:36;1.90;;;0.90;;
51660;SDS011;37741;49.748;8.490;2023-09-19T00:03:02;2.50;;;1.25;;
51660;SDS011;37741;49.748;8.490;2023-09-19T00:05:29;2.78;;;0.98;;
51660;SDS011;37741;49.748;8.490;2023-09-19T00:07:59;2.97;;;0.73;;
51660;SDS011;37741;49.748;8.490;2023-09-19T00:10:26;2.25;;;1.08;;
51660;SDS011;37741;49.748;8.490;2023-09-19T00:12:56;3.33;;;1.00;;
51660;SDS011;37741;49.748;8.490;2023-09-19T00:15:24;3.22;;;1.00;;
51660;SDS011;37741;49.748;8.490;2023-09-19T00:17:54;2.97;;;0.88;;
51660;SDS011;37741;49.748;8.490;2023-09-19T00:20:20;2.17;;;0.77;;
51660;SDS011;37741;49.748;8.490;2023-09-19T00:22:48;2.20;;;1.00;;
51660;SDS011;37741;49.748;8.490;2023-09-19T00:25:18;1.80;;;0.80;;
51660;SDS011;37741;49.748;8.490;2023-09-19T00:27:45;3.22;;;0.98;;
51660;SDS011;37741;49.748;8.490;2023-09-19T00:30:13;2.30;;;1.00;;
51660;SDS011;37741;49.748;8.490;2023-09-19T00:32:44;2.28;;;0.85;;
51660;SDS011;37741;49.748;8.490;2023-09-19T00:35:12;3.90;;;1.15;;
51660;SDS011;37741;49.748;8.490;2023-09-19T00:37:40;4.22;;;1.30;;
51660;SDS011;37741;49.748;8.490;2023-09-19T00:40:08;2.00;;;1.00;;
51660;SDS011;37741;49.748;8.490;2023-09-19T00:42:41;3.10;;;1.08;;
51660;SDS011;37741;49.748;8.490;2023-09-19T00:45:08;3.95;;;1.00;;
51660;SDS011;37741;49.748;8.490;2023-09-19T00:47:37;1.58;;;0.77;;
51660;SDS011;37741;49.748;8.490;2023-09-19T00:50:04;2.92;;;1.20;;
51660;SDS011;37741;49.748;8.490;2023-09-19T00:52:36;1.80;;;0.90;;
51660;SDS011;37741;49.748;8.490;2023-09-19T00:55:03;2.08;;;0.80;;
51660;SDS011;37741;49.748;8.490;2023-09-19T00:57:30;2.35;;;0.98;;
51660;SDS011;37741;49.748;8.490;2023-09-19T00:59:57;2.30;;;0.90;;
51660;SDS011;37741;49.748;8.490;2023-09-19T01:02:24;3.17;;;1.05;;
51660;SDS011;37741;49.748;8.490;2023-09-19T01:04:53;2.63;;;0.73;;
51660;SDS011;37741;49.748;8.490;2023-09-19T01:07:19;2.78;;;0.82;;
51660;SDS011;37741;49.748;8.490;2023-09-19T01:09:47;3.05;;;1.10;;
51660;SDS011;37741;49.748;8.490;2023-09-19T01:12:15;3.10;;;0.70;;
51660;SDS011;37741;49.748;8.490;2023-09-19T01:17:18;2.97;;;1.08;;
51660;SDS011;37741;49.748;8.490;2023-09-19T01:23:03;3.40;;;1.20;;
51660;SDS011;37741;49.748;8.490;2023-09-19T01:28:35;2.50;;;1.00;;
51660;SDS011;37741;49.748;8.490;2023-09-19T01:31:12;2.53;;;1.08;;
51660;SDS011;37741;49.748;8.490;2023-09-19T01:36:34;2.13;;;0.90;;
51660;SDS011;37741;49.748;8.490;2023-09-19T01:39:02;2.35;;;1.08;;
51660;SDS011;37741;49.748;8.490;2023-09-19T01:41:44;4.03;;;1.20;;
51660;SDS011;37741;49.748;8.490;2023-09-19T01:44:24;2.00;;;1.08;;
51660;SDS011;37741;49.748;8.490;2023-09-19T01:46:55;2.10;;;1.00;;
51660;SDS011;37741;49.748;8.490;2023-09-19T01:49:38;2.20;;;0.95;;
51660;SDS011;37741;49.748;8.490;2023-09-19T01:52:31;2.40;;;1.10;;
51660;SDS011;37741;49.748;8.490;2023-09-19T01:55:07;3.13;;;0.98;;
51660;SDS011;37741;49.748;8.490;2023-09-19T01:57:40;4.25;;;1.35;;
51660;SDS011;37741;49.748;8.490;2023-09-19T02:00:11;2.55;;;1.05;;
51660;SDS011;37741;49.748;8.490;2023-09-19T02:02:46;2.58;;;0.90;;
51660;SDS011;37741;49.748;8.490;2023-09-19T02:05:13;2.13;;;0.90;;
51660;SDS011;37741;49.748;8.490;2023-09-19T02:07:47;1.92;;;0.80;;
51660;SDS011;37741;49.748;8.490;2023-09-19T02:10:13;2.28;;;1.00;;
51660;SDS011;37741;49.748;8.490;2023-09-19T02:12:39;2.17;;;1.05;;
51660;SDS011;37741;49.748;8.490;2023-09-19T02:15:05;3.05;;;1.10;;
51660;SDS011;37741;49.748;8.490;2023-09-19T02:17:32;2.42;;;0.90;;
51660;SDS011;37741;49.748;8.490;2023-09-19T02:19:58;2.50;;;0.90;;
51660;SDS011;37741;49.748;8.490;2023-09-19T02:22:28;2.20;;;1.17;;
51660;SDS011;37741;49.748;8.490;2023-09-19T02:24:54;2.15;;;0.95;;
51660;SDS011;37741;49.748;8.490;2023-09-19T02:27:23;2.97;;;1.10;;
51660;SDS011;37741;49.748;8.490;2023-09-19T02:29:49;2.15;;;1.02;;
51660;SDS011;37741;49.748;8.490;2023-09-19T02:32:15;2.30;;;1.05;;
51660;SDS011;37741;49.748;8.490;2023-09-19T02:34:43;2.17;;;1.20;;
51660;SDS011;37741;49.748;8.490;2023-09-19T02:37:10;2.72;;;1.10;;
51660;SDS011;37741;49.748;8.490;2023-09-19T02:39:38;4.22;;;0.85;;
51660;SDS011;37741;49.748;8.490;2023-09-19T02:42:04;6.70;;;1.13;;
51660;SDS011;37741;49.748;8.490;2023-09-19T02:44:30;2.17;;;1.02;;
51660;SDS011;37741;49.748;8.490;2023-09-19T02:46:56;2.75;;;1.25;;
51660;SDS011;37741;49.748;8.490;2023-09-19T02:49:22;2.45;;;1.48;;
51660;SDS011;37741;49.748;8.490;2023-09-19T02:51:48;2.70;;;1.05;;
51660;SDS011;37741;49.748;8.490;2023-09-19T02:54:14;2.20;;;1.20;;
51660;SDS011;37741;49.748;8.490;2023-09-19T02:56:40;2.78;;;1.10;;
51660;SDS011;37741;49.748;8.490;2023-09-19T02:59:06;2.10;;;1.23;;
51660;SDS011;37741;49.748;8.490;2023-09-19T03:01:35;3.38;;;1.13;;
51660;SDS011;37741;49.748;8.490;2023-09-19T03:04:02;2.50;;;1.08;;
51660;SDS011;37741;49.748;8.490;2023-09-19T03:06:28;1.88;;;0.98;;
51660;SDS011;37741;49.748;8.490;2023-09-19T03:08:56;2.70;;;1.40;;
51660;SDS011;37741;49.748;8.490;2023-09-19T03:11:21;2.38;;;1.08;;
51660;SDS011;37741;49.748;8.490;2023-09-19T03:13:52;2.53;;;1.23;;
51660;SDS011;37741;49.748;8.490;2023-09-19T03:16:18;2.55;;;1.23;;
51660;SDS011;37741;49.748;8.490;2023-09-19T03:18:47;3.67;;;1.00;;
51660;SDS011;37741;49.748;8.490;2023-09-19T03:21:14;2.80;;;1.00;;
51660;SDS011;37741;49.748;8.490;2023-09-19T03:23:40;3.70;;;1.17;;
51660;SDS011;37741;49.748;8.490;2023-09-19T03:26:07;1.77;;;1.20;;
51660;SDS011;37741;49.748;8.490;2023-09-19T03:28:33;3.28;;;1.30;;
51660;SDS011;37741;49.748;8.490;2023-09-19T03:31:03;4.13;;;1.23;;
51660;SDS011;37741;49.748;8.490;2023-09-19T03:33:30;2.25;;;1.23;;
51660;SDS011;37741;49.748;8.490;2023-09-19T03:35:59;4.00;;;1.60;;
51660;SDS011;37741;49.748;8.490;2023-09-19T03:38:26;3.17;;;1.40;;
51660;SDS011;37741;49.748;8.490;2023-09-19T03:40:53;1.98;;;1.02;;
51660;SDS011;37741;49.748;8.490;2023-09-19T03:43:19;2.83;;;1.50;;
51660;SDS011;37741;49.748;8.490;2023-09-19T03:45:45;2.72;;;1.35;;
51660;SDS011;37741;49.748;8.490;2023-09-19T03:48:11;6.70;;;1.38;;
51660;SDS011;37741;49.748;8.490;2023-09-19T03:50:38;2.13;;;1.35;;
51660;SDS011;37741;49.748;8.490;2023-09-19T03:53:04;3.97;;;1.50;;
51660;SDS011;37741;49.748;8.490;2023-09-19T03:55:30;2.00;;;1.05;;
51660;SDS011;37741;49.748;8.490;2023-09-19T03:57:56;3.22;;;1.23;;
51660;SDS011;37741;49.748;8.490;2023-09-19T04:00:22;2.45;;;1.17;;
51660;SDS011;37741;49.748;8.490;2023-09-19T04:02:49;3.22;;;1.20;;
51660;SDS011;37741;49.748;8.490;2023-09-19T04:05:16;2.80;;;1.20;;
51660;SDS011;37741;49.748;8.490;2023-09-19T04:07:42;3.08;;;1.20;;
51660;SDS011;37741;49.748;8.490;2023-09-19T04:10:08;2.92;;;1.20;;
51660;SDS011;37741;49.748;8.490;2023-09-19T04:12:36;3.13;;;1.42;;
51660;SDS011;37741;49.748;8.490;2023-09-19T04:15:02;2.70;;;1.25;;
51660;SDS011;37741;49.748;8.490;2023-09-19T04:17:28;3.50;;;1.58;;
51660;SDS011;37741;49.748;8.490;2023-09-19T04:19:54;2.00;;;1.17;;
51660;SDS011;37741;49.748;8.490;2023-09-19T04:22:19;2.78;;;1.50;;
51660;SDS011;37741;49.748;8.490;2023-09-19T04:24:45;2.33;;;1.20;;
51660;SDS011;37741;49.748;8.490;2023-09-19T04:27:11;4.78;;;2.05;;
51660;SDS011;37741;49.748;8.490;2023-09-19T04:29:39;3.45;;;1.50;;
51660;SDS011;37741;49.748;8.490;2023-09-19T04:32:06;3.35;;;1.65;;
51660;SDS011;37741;49.748;8.490;2023-09-19T04:34:32;4.25;;;1.95;;
51660;SDS011;37741;49.748;8.490;2023-09-19T04:36:59;4.78;;;1.80;;
51660;SDS011;37741;49.748;8.490;2023-09-19T04:39:25;4.47;;;2.20;;
51660;SDS011;37741;49.748;8.490;2023-09-19T04:41:51;2.42;;;1.55;;
51660;SDS011;37741;49.748;8.490;2023-09-19T04:44:17;2.97;;;2.05;;
51660;SDS011;37741;49.748;8.490;2023-09-19T04:46:44;3.58;;;2.10;;
51660;SDS011;37741;49.748;8.490;2023-09-19T04:49:11;7.60;;;2.00;;
51660;SDS011;37741;49.748;8.490;2023-09-19T04:51:37;4.85;;;1.90;;
51660;SDS011;37741;49.748;8.490;2023-09-19T04:54:03;3.20;;;1.80;;
51660;SDS011;37741;49.748;8.490;2023-09-19T04:56:29;3.67;;;1.77;;
51660;SDS011;37741;49.748;8.490;2023-09-19T04:58:54;2.95;;;1.75;;
51660;SDS011;37741;49.748;8.490;2023-09-19T05:01:20;3.70;;;2.05;;
51660;SDS011;37741;49.748;8.490;2023-09-19T05:03:48;3.22;;;2.03;;
51660;SDS011;37741;49.748;8.490;2023-09-19T05:06:20;4.28;;;1.77;;
51660;SDS011;37741;49.748;8.490;2023-09-19T05:08:50;3.95;;;1.83;;
51660;SDS011;37741;49.748;8.490;2023-09-19T05:11:17;4.80;;;1.85;;
51660;SDS011;37741;49.748;8.490;2023-09-19T05:13:46;3.60;;;2.13;;
51660;SDS011;37741;49.748;8.490;2023-09-19T05:16:11;8.63;;;1.92;;
51660;SDS011;37741;49.748;8.490;2023-09-19T05:18:37;3.47;;;1.92;;
51660;SDS011;37741;49.748;8.490;2023-09-19T05:21:02;4.75;;;1.77;;
51660;SDS011;37741;49.748;8.490;2023-09-19T05:23:28;4.57;;;2.25;;
51660;SDS011;37741;49.748;8.490;2023-09-19T05:25:54;2.85;;;1.85;;
51660;SDS011;37741;49.748;8.490;2023-09-19T05:28:21;3.70;;;2.40;;
51660;SDS011;37741;49.748;8.490;2023-09-19T05:30:47;4.18;;;1.88;;
51660;SDS011;37741;49.748;8.490;2023-09-19T05:33:14;3.78;;;2.03;;
51660;SDS011;37741;49.748;8.490;2023-09-19T05:35:39;3.42;;;2.22;;
51660;SDS011;37741;49.748;8.490;2023-09-19T05:38:06;4.15;;;2.08;;
51660;SDS011;37741;49.748;8.490;2023-09-19T05:40:34;4.22;;;2.10;;
51660;SDS011;37741;49.748;8.490;2023-09-19T05:43:00;3.45;;;1.92;;
51660;SDS011;37741;49.748;8.490;2023-09-19T05:45:26;3.38;;;1.98;;
51660;SDS011;37741;49.748;8.490;2023-09-19T05:47:52;2.75;;;1.63;;
51660;SDS011;37741;49.748;8.490;2023-09-19T05:50:29;3.85;;;2.00;;
51660;SDS011;37741;49.748;8.490;2023-09-19T05:52:55;5.65;;;2.03;;
51660;SDS011;37741;49.748;8.490;2023-09-19T05:55:21;3.10;;;2.10;;
51660;SDS011;37741;49.748;8.490;2023-09-19T05:57:52;3.83;;;1.75;;
51660;SDS011;37741;49.748;8.490;2023-09-19T06:00:22;3.78;;;2.38;;
51660;SDS011;37741;49.748;8.490;2023-09-19T06:02:52;2.72;;;1.80;;
51660;SDS011;37741;49.748;8.490;2023-09-19T06:05:18;5.68;;;2.00;;
51660;SDS011;37741;49.748;8.490;2023-09-19T06:07:45;4.93;;;1.98;;
51660;SDS011;37741;49.748;8.490;2023-09-19T06:10:11;4.78;;;2.10;;
51660;SDS011;37741;49.748;8.490;2023-09-19T06:12:38;4.10;;;2.00;;
51660;SDS011;37741;49.748;8.490;2023-09-19T06:15:05;5.90;;;2.45;;
51660;SDS011;37741;49.748;8.490;2023-09-19T06:17:33;3.30;;;1.67;;
51660;SDS011;37741;49.748;8.490;2023-09-19T06:20:02;4.18;;;2.00;;
51660;SDS011;37741;49.748;8.490;2023-09-19T06:22:44;4.18;;;2.00;;
51660;SDS011;37741;49.748;8.490;2023-09-19T06:25:10;4.80;;;2.03;;
51660;SDS011;37741;49.748;8.490;2023-09-19T06:27:40;3.17;;;1.70;;
51660;SDS011;37741;49.748;8.490;2023-09-19T06:30:09;3.72;;;1.80;;
51660;SDS011;37741;49.748;8.490;2023-09-19T06:32:36;3.13;;;1.90;;
51660;SDS011;37741;49.748;8.490;2023-09-19T06:35:02;2.97;;;1.70;;
51660;SDS011;37741;49.748;8.490;2023-09-19T06:37:28;4.57;;;2.05;;
51660;SDS011;37741;49.748;8.490;2023-09-19T06:39:54;4.95;;;1.92;;
51660;SDS011;37741;49.748;8.490;2023-09-19T06:42:21;2.65;;;1.48;;
51660;SDS011;37741;49.748;8.490;2023-09-19T06:44:48;3.47;;;2.03;;
51660;SDS011;37741;49.748;8.490;2023-09-19T06:47:14;4.78;;;1.90;;
51660;SDS011;37741;49.748;8.490;2023-09-19T06:49:41;3.10;;;1.60;;
51660;SDS011;37741;49.748;8.490;2023-09-19T06:52:12;4.15;;;1.90;;
51660;SDS011;37741;49.748;8.490;2023-09-19T06:54:38;3.42;;;1.73;;
51660;SDS011;37741;49.748;8.490;2023-09-19T06:57:04;3.78;;;1.90;;
51660;SDS011;37741;49.748;8.490;2023-09-19T06:59:31;3.95;;;2.00;;
51660;SDS011;37741;49.748;8.490;2023-09-19T07:01:57;2.90;;;1.63;;
51660;SDS011;37741;49.748;8.490;2023-09-19T07:04:24;3.75;;;1.90;;
51660;SDS011;37741;49.748;8.490;2023-09-19T07:06:50;3.95;;;2.15;;
51660;SDS011;37741;49.748;8.490;2023-09-19T07:09:16;2.83;;;1.40;;
51660;SDS011;37741;49.748;8.490;2023-09-19T07:11:42;5.38;;;1.50;;
51660;SDS011;37741;49.748;8.490;2023-09-19T07:14:08;3.40;;;1.67;;
51660;SDS011;37741;49.748;8.490;2023-09-19T07:16:36;6.68;;;2.45;;
51660;SDS011;37741;49.748;8.490;2023-09-19T07:19:04;3.05;;;1.67;;
51660;SDS011;37741;49.748;8.490;2023-09-19T07:21:29;4.03;;;1.52;;
51660;SDS011;37741;49.748;8.490;2023-09-19T07:23:55;3.92;;;1.90;;
51660;SDS011;37741;49.748;8.490;2023-09-19T07:26:21;2.92;;;1.45;;
51660;SDS011;37741;49.748;8.490;2023-09-19T07:28:47;7.45;;;1.92;;
51660;SDS011;37741;49.748;8.490;2023-09-19T07:31:12;3.33;;;1.60;;
51660;SDS011;37741;49.748;8.490;2023-09-19T07:33:39;4.20;;;1.70;;
51660;SDS011;37741;49.748;8.490;2023-09-19T07:36:05;4.03;;;1.70;;
51660;SDS011;37741;49.748;8.490;2023-09-19T07:38:34;3.67;;;1.95;;
51660;SDS011;37741;49.748;8.490;2023-09-19T07:41:00;2.50;;;1.35;;
51660;SDS011;37741;49.748;8.490;2023-09-19T07:43:27;4.07;;;1.90;;
51660;SDS011;37741;49.748;8.490;2023-09-19T07:45:53;3.40;;;1.40;;
51660;SDS011;37741;49.748;8.490;2023-09-19T07:48:18;5.78;;;2.13;;
51660;SDS011;37741;49.748;8.490;2023-09-19T07:50:44;2.65;;;1.48;;
51660;SDS011;37741;49.748;8.490;2023-09-19T07:53:10;3.00;;;1.70;;
51660;SDS011;37741;49.748;8.490;2023-09-19T07:55:38;2.80;;;1.63;;
51660;SDS011;37741;49.748;8.490;2023-09-19T07:58:06;3.00;;;1.52;;
51660;SDS011;37741;49.748;8.490;2023-09-19T08:00:32;4.65;;;2.30;;
51660;SDS011;37741;49.748;8.490;2023-09-19T08:02:59;2.53;;;1.30;;
51660;SDS011;37741;49.748;8.490;2023-09-19T08:05:26;3.75;;;1.80;;
51660;SDS011;37741;49.748;8.490;2023-09-19T08:07:52;3.45;;;1.75;;
51660;SDS011;37741;49.748;8.490;2023-09-19T08:10:21;2.90;;;1.40;;
51660;SDS011;37741;49.748;8.490;2023-09-19T08:12:47;4.10;;;1.35;;
51660;SDS011;37741;49.748;8.490;2023-09-19T08:15:17;2.95;;;1.27;;
51660;SDS011;37741;49.748;8.490;2023-09-19T08:17:45;3.67;;;1.55;;
51660;SDS011;37741;49.748;8.490;2023-09-19T08:20:11;4.88;;;1.58;;
51660;SDS011;37741;49.748;8.490;2023-09-19T08:22:46;4.32;;;1.77;;
51660;SDS011;37741;49.748;8.490;2023-09-19T08:25:22;3.95;;;1.98;;
51660;SDS011;37741;49.748;8.490;2023-09-19T08:27:50;4.45;;;1.38;;
51660;SDS011;37741;49.748;8.490;2023-09-19T08:30:16;4.57;;;1.50;;
51660;SDS011;37741;49.748;8.490;2023-09-19T08:32:45;5.38;;;1.55;;
51660;SDS011;37741;49.748;8.490;2023-09-19T08:35:14;4.80;;;2.85;;
51660;SDS011;37741;49.748;8.490;2023-09-19T08:37:40;3.83;;;1.52;;
51660;SDS011;37741;49.748;8.490;2023-09-19T08:40:07;5.38;;;1.70;;
51660;SDS011;37741;49.748;8.490;2023-09-19T08:42:49;3.03;;;1.58;;
51660;SDS011;37741;49.748;8.490;2023-09-19T08:45:22;3.85;;;1.50;;
51660;SDS011;37741;49.748;8.490;2023-09-19T08:50:43;3.53;;;1.85;;
51660;SDS011;37741;49.748;8.490;2023-09-19T08:53:50;3.92;;;1.60;;
51660;SDS011;37741;49.748;8.490;2023-09-19T08:56:13;3.65;;;1.45;;
51660;SDS011;37741;49.748;8.490;2023-09-19T08:58:53;3.83;;;1.77;;
51660;SDS011;37741;49.748;8.490;2023-09-19T09:01:32;3.92;;;1.85;;
51660;SDS011;37741;49.748;8.490;2023-09-19T09:03:58;6.07;;;1.75;;
51660;SDS011;37741;49.748;8.490;2023-09-19T09:06:26;3.60;;;1.60;;
51660;SDS011;37741;49.748;8.490;2023-09-19T09:08:53;3.00;;;1.58;;
51660;SDS011;37741;49.748;8.490;2023-09-19T09:11:19;5.72;;;1.90;;
51660;SDS011;37741;49.748;8.490;2023-09-19T09:13:46;4.38;;;1.80;;
51660;SDS011;37741;49.748;8.490;2023-09-19T09:16:12;3.92;;;1.75;;
51660;SDS011;37741;49.748;8.490;2023-09-19T09:18:41;4.03;;;1.77;;
51660;SDS011;37741;49.748;8.490;2023-09-19T09:21:09;3.38;;;1.35;;
51660;SDS011;37741;49.748;8.490;2023-09-19T09:23:35;7.45;;;2.65;;
51660;SDS011;37741;49.748;8.490;2023-09-19T09:26:01;6.25;;;2.05;;
51660;SDS011;37741;49.748;8.490;2023-09-19T09:28:31;4.88;;;1.88;;
51660;SDS011;37741;49.748;8.490;2023-09-19T09:30:58;5.20;;;1.60;;
51660;SDS011;37741;49.748;8.490;2023-09-19T09:33:25;4.03;;;1.30;;
51660;SDS011;37741;49.748;8.490;2023-09-19T09:38:26;5.22;;;1.58;;
51660;SDS011;37741;49.748;8.490;2023-09-19T09:40:54;4.43;;;1.63;;
51660;SDS011;37741;49.748;8.490;2023-09-19T09:48:55;5.28;;;1.70;;
51660;SDS011;37741;49.748;8.490;2023-09-19T09:54:24;4.25;;;1.52;;
51660;SDS011;37741;49.748;8.490;2023-09-19T09:57:04;4.63;;;1.90;;
51660;SDS011;37741;49.748;8.490;2023-09-19T09:59:55;3.22;;;1.38;;
51660;SDS011;37741;49.748;8.490;2023-09-19T10:02:41;4.28;;;1.42;;
51660;SDS011;37741;49.748;8.490;2023-09-19T10:07:49;5.07;;;1.70;;
51660;SDS011;37741;49.748;8.490;2023-09-19T10:10:33;3.38;;;1.42;;
51660;SDS011;37741;49.748;8.490;2023-09-19T10:13:18;4.85;;;1.63;;
51660;SDS011;37741;49.748;8.490;2023-09-19T10:15:48;4.30;;;1.50;;
51660;SDS011;37741;49.748;8.490;2023-09-19T10:18:24;4.10;;;1.67;;
51660;SDS011;37741;49.748;8.490;2023-09-19T10:20:51;4.60;;;1.63;;
51660;SDS011;37741;49.748;8.490;2023-09-19T10:23:18;5.40;;;1.60;;
51660;SDS011;37741;49.748;8.490;2023-09-19T10:25:49;5.43;;;1.65;;
51660;SDS011;37741;49.748;8.490;2023-09-19T10:28:16;7.55;;;2.22;;
51660;SDS011;37741;49.748;8.490;2023-09-19T10:30:47;8.38;;;1.63;;
51660;SDS011;37741;49.748;8.490;2023-09-19T10:33:15;4.15;;;1.50;;
51660;SDS011;37741;49.748;8.490;2023-09-19T10:35:44;3.83;;;1.55;;
51660;SDS011;37741;49.748;8.490;2023-09-19T10:38:11;4.85;;;1.52;;
51660;SDS011;37741;49.748;8.490;2023-09-19T10:40:39;9.05;;;2.35;;
51660;SDS011;37741;49.748;8.490;2023-09-19T10:43:11;4.75;;;2.00;;
51660;SDS011;37741;49.748;8.490;2023-09-19T10:45:39;6.30;;;1.70;;
51660;SDS011;37741;49.748;8.490;2023-09-19T10:48:06;5.78;;;1.95;;
51660;SDS011;37741;49.748;8.490;2023-09-19T10:50:43;4.32;;;1.55;;
51660;SDS011;37741;49.748;8.490;2023-09-19T10:53:14;5.55;;;2.45;;
51660;SDS011;37741;49.748;8.490;2023-09-19T10:55:42;6.78;;;2.17;;
51660;SDS011;37741;49.748;8.490;2023-09-19T10:58:24;6.25;;;2.13;;
51660;SDS011;37741;49.748;8.490;2023-09-19T11:00:59;4.22;;;1.88;;
51660;SDS011;37741;49.748;8.490;2023-09-19T11:03:31;7.60;;;2.30;;
51660;SDS011;37741;49.748;8.490;2023-09-19T11:09:02;5.40;;;1.90;;
51660;SDS011;37741;49.748;8.490;2023-09-19T11:11:50;3.55;;;1.67;;
51660;SDS011;37741;49.748;8.490;2023-09-19T11:30:38;4.97;;;1.60;;
51660;SDS011;37741;49.748;8.490;2023-09-19T11:36:05;5.15;;;1.80;;
51660;SDS011;37741;49.748;8.490;2023-09-19T11:46:54;5.55;;;1.58;;
51660;SDS011;37741;49.748;8.490;2023-09-19T11:49:31;5.90;;;2.38;;
51660;SDS011;37741;49.748;8.490;2023-09-19T11:51:58;5.30;;;1.70;;
51660;SDS011;37741;49.748;8.490;2023-09-19T11:54:29;4.32;;;1.58;;
51660;SDS011;37741;49.748;8.490;2023-09-19T11:56:59;3.28;;;1.55;;
51660;SDS011;37741;49.748;8.490;2023-09-19T11:59:26;6.57;;;1.50;;
51660;SDS011;37741;49.748;8.490;2023-09-19T12:01:55;8.40;;;1.85;;
51660;SDS011;37741;49.748;8.490;2023-09-19T12:04:43;4.15;;;1.52;;
51660;SDS011;37741;49.748;8.490;2023-09-19T12:07:14;5.53;;;1.45;;
51660;SDS011;37741;49.748;8.490;2023-09-19T12:09:41;3.10;;;1.30;;
51660;SDS011;37741;49.748;8.490;2023-09-19T12:12:10;3.40;;;1.38;;
51660;SDS011;37741;49.748;8.490;2023-09-19T12:14:40;3.67;;;1.50;;
51660;SDS011;37741;49.748;8.490;2023-09-19T12:17:08;5.88;;;2.25;;
51660;SDS011;37741;49.748;8.490;2023-09-19T12:19:34;4.55;;;1.65;;
51660;SDS011;37741;49.748;8.490;2023-09-19T12:22:03;4.30;;;1.77;;
51660;SDS011;37741;49.748;8.490;2023-09-19T12:24:34;9.15;;;1.95;;
51660;SDS011;37741;49.748;8.490;2023-09-19T12:27:04;4.57;;;1.33;;
51660;SDS011;37741;49.748;8.490;2023-09-19T12:29:32;3.55;;;1.30;;
51660;SDS011;37741;49.748;8.490;2023-09-19T12:32:07;5.40;;;1.58;;
51660;SDS011;37741;49.748;8.490;2023-09-19T12:34:33;4.15;;;1.50;;
51660;SDS011;37741;49.748;8.490;2023-09-19T12:37:14;3.20;;;1.20;;
51660;SDS011;37741;49.748;8.490;2023-09-19T12:40:03;6.18;;;2.08;;
51660;SDS011;37741;49.748;8.490;2023-09-19T12:42:42;3.92;;;1.50;;
51660;SDS011;37741;49.748;8.490;2023-09-19T12:45:15;3.70;;;1.30;;
51660;SDS011;37741;49.748;8.490;2023-09-19T12:51:09;4.78;;;1.77;;
51660;SDS011;37741;49.748;8.490;2023-09-19T12:53:41;3.78;;;1.55;;
51660;SDS011;37741;49.748;8.490;2023-09-19T12:56:12;4.97;;;1.52;;
51660;SDS011;37741;49.748;8.490;2023-09-19T12:58:55;3.60;;;1.60;;
51660;SDS011;37741;49.748;8.490;2023-09-19T13:01:24;3.35;;;1.20;;
51660;SDS011;37741;49.748;8.490;2023-09-19T13:04:12;4.90;;;1.55;;
51660;SDS011;37741;49.748;8.490;2023-09-19T13:06:50;4.93;;;2.22;;
51660;SDS011;37741;49.748;8.490;2023-09-19T13:09:17;6.78;;;2.00;;
51660;SDS011;37741;49.748;8.490;2023-09-19T13:11:45;4.88;;;1.27;;
51660;SDS011;37741;49.748;8.490;2023-09-19T13:20:02;3.03;;;1.20;;
51660;SDS011;37741;49.748;8.490;2023-09-19T13:25:12;3.88;;;1.50;;
51660;SDS011;37741;49.748;8.490;2023-09-19T13:27:43;4.45;;;1.20;;
51660;SDS011;37741;49.748;8.490;2023-09-19T13:30:10;4.55;;;1.17;;
51660;SDS011;37741;49.748;8.490;2023-09-19T13:32:37;3.30;;;1.00;;
51660;SDS011;37741;49.748;8.490;2023-09-19T13:35:03;5.30;;;1.80;;
51660;SDS011;37741;49.748;8.490;2023-09-19T13:37:30;3.65;;;1.35;;
51660;SDS011;37741;49.748;8.490;2023-09-19T13:39:59;5.55;;;1.67;;
51660;SDS011;37741;49.748;8.490;2023-09-19T13:42:24;3.17;;;1.20;;
51660;SDS011;37741;49.748;8.490;2023-09-19T13:44:52;4.03;;;1.25;;
51660;SDS011;37741;49.748;8.490;2023-09-19T13:47:19;3.70;;;1.40;;
51660;SDS011;37741;49.748;8.490;2023-09-19T13:49:49;3.53;;;1.20;;
51660;SDS011;37741;49.748;8.490;2023-09-19T13:52:17;2.33;;;1.05;;
51660;SDS011;37741;49.748;8.490;2023-09-19T13:54:48;2.45;;;1.13;;
51660;SDS011;37741;49.748;8.490;2023-09-19T13:57:17;3.38;;;1.30;;
51660;SDS011;37741;49.748;8.490;2023-09-19T13:59:43;4.97;;;1.25;;
51660;SDS011;37741;49.748;8.490;2023-09-19T14:02:09;2.42;;;1.00;;
51660;SDS011;37741;49.748;8.490;2023-09-19T14:04:35;2.80;;;1.20;;
51660;SDS011;37741;49.748;8.490;2023-09-19T14:07:01;3.92;;;1.27;;
51660;SDS011;37741;49.748;8.490;2023-09-19T14:09:27;3.72;;;1.33;;
51660;SDS011;37741;49.748;8.490;2023-09-19T14:11:52;3.00;;;1.10;;
51660;SDS011;37741;49.748;8.490;2023-09-19T14:14:18;2.85;;;1.20;;
51660;SDS011;37741;49.748;8.490;2023-09-19T14:16:45;3.25;;;1.20;;
51660;SDS011;37741;49.748;8.490;2023-09-19T14:19:11;3.08;;;1.20;;
51660;SDS011;37741;49.748;8.490;2023-09-19T14:21:38;4.07;;;1.30;;
51660;SDS011;37741;49.748;8.490;2023-09-19T14:24:04;2.60;;;1.20;;
51660;SDS011;37741;49.748;8.490;2023-09-19T14:26:37;3.38;;;1.48;;
51660;SDS011;37741;49.748;8.490;2023-09-19T14:29:03;4.22;;;1.27;;
51660;SDS011;37741;49.748;8.490;2023-09-19T14:31:32;3.03;;;1.10;;
51660;SDS011;37741;49.748;8.490;2023-09-19T14:33:58;2.33;;;1.08;;
51660;SDS011;37741;49.748;8.490;2023-09-19T14:36:24;4.53;;;1.20;;
51660;SDS011;37741;49.748;8.490;2023-09-19T14:38:54;3.22;;;1.25;;
51660;SDS011;37741;49.748;8.490;2023-09-19T14:41:21;3.00;;;1.20;;
51660;SDS011;37741;49.748;8.490;2023-09-19T14:43:48;3.30;;;1.10;;
51660;SDS011;37741;49.748;8.490;2023-09-19T14:46:14;2.70;;;1.13;;
51660;SDS011;37741;49.748;8.490;2023-09-19T14:48:41;3.85;;;1.25;;
51660;SDS011;37741;49.748;8.490;2023-09-19T14:51:07;3.10;;;1.33;;
51660;SDS011;37741;49.748;8.490;2023-09-19T14:53:37;3.97;;;1.10;;
51660;SDS011;37741;49.748;8.490;2023-09-19T14:56:03;5.13;;;1.17;;
51660;SDS011;37741;49.748;8.490;2023-09-19T14:58:30;4.28;;;0.98;;
51660;SDS011;37741;49.748;8.490;2023-09-19T15:01:06;3.42;;;1.17;;
51660;SDS011;37741;49.748;8.490;2023-09-19T15:03:33;3.63;;;1.13;;
51660;SDS011;37741;49.748;8.490;2023-09-19T15:06:02;3.05;;;1.27;;
51660;SDS011;37741;49.748;8.490;2023-09-19T15:08:32;2.50;;;0.80;;
51660;SDS011;37741;49.748;8.490;2023-09-19T15:11:00;2.65;;;1.02;;
51660;SDS011;37741;49.748;8.490;2023-09-19T15:13:30;1.98;;;0.90;;
51660;SDS011;37741;49.748;8.490;2023-09-19T15:16:03;3.05;;;1.00;;
51660;SDS011;37741;49.748;8.490;2023-09-19T15:18:33;3.30;;;1.23;;
51660;SDS011;37741;49.748;8.490;2023-09-19T15:21:02;4.40;;;1.70;;
51660;SDS011;37741;49.748;8.490;2023-09-19T15:23:32;2.75;;;1.48;;
51660;SDS011;37741;49.748;8.490;2023-09-19T15:26:06;3.00;;;1.00;;
51660;SDS011;37741;49.748;8.490;2023-09-19T15:28:33;2.88;;;1.30;;
51660;SDS011;37741;49.748;8.490;2023-09-19T15:31:00;2.30;;;1.10;;
51660;SDS011;37741;49.748;8.490;2023-09-19T15:33:25;2.70;;;1.10;;
51660;SDS011;37741;49.748;8.490;2023-09-19T15:35:59;2.72;;;1.08;;
51660;SDS011;37741;49.748;8.490;2023-09-19T15:38:26;2.70;;;0.98;;
51660;SDS011;37741;49.748;8.490;2023-09-19T15:40:53;2.13;;;0.85;;
51660;SDS011;37741;49.748;8.490;2023-09-19T15:43:19;2.17;;;1.00;;
51660;SDS011;37741;49.748;8.490;2023-09-19T15:45:46;3.28;;;1.20;;
51660;SDS011;37741;49.748;8.490;2023-09-19T15:48:13;2.20;;;1.08;;
51660;SDS011;37741;49.748;8.490;2023-09-19T15:50:39;4.30;;;1.10;;
51660;SDS011;37741;49.748;8.490;2023-09-19T15:53:08;2.70;;;0.80;;
51660;SDS011;37741;49.748;8.490;2023-09-19T15:55:40;2.25;;;0.70;;
51660;SDS011;37741;49.748;8.490;2023-09-19T15:58:06;3.92;;;0.90;;
51660;SDS011;37741;49.748;8.490;2023-09-19T16:00:32;2.58;;;0.90;;
51660;SDS011;37741;49.748;8.490;2023-09-19T16:03:01;2.42;;;1.00;;
51660;SDS011;37741;49.748;8.490;2023-09-19T16:05:27;2.75;;;1.00;;
51660;SDS011;37741;49.748;8.490;2023-09-19T16:07:53;3.45;;;1.17;;